sensor_id;sensor_type;location;lat;lon;timestamp;temperature;humidity
2757;DHT22;1386;50.862;6.494;2023-05-07T06:59:26;15.70;99.90
2757;DHT22;1386;50.862;6.494;2023-05-07T07:02:00;16.00;99.90
2757;DHT22;1386;50.862;6.494;2023-05-07T07:04:28;15.80;99.90
2757;DHT22;1386;50.862;6.494;2023-05-07T07:07:02;15.90;99.90
2757;DHT22;1386;50.862;6.494;2023-05-07T07:09:30;16.30;99.90
2757;DHT22;1386;50.862;6.494;2023-05-07T07:11:58;16.10;99.90
2757;DHT22;1386;50.862;6.494;2023-05-07T07:14:29;16.70;99.90
2757;DHT22;1386;50.862;6.494;2023-05-07T07:16:59;16.20;99.90
2757;DHT22;1386;50.862;6.494;2023-05-07T07:19:26;16.80;99.90
2757;DHT22;1386;50.862;6.494;2023-05-07T07:21:56;16.40;99.90
2757;DHT22;1386;50.862;6.494;2023-05-07T07:24:23;16.50;99.90
2757;DHT22;1386;50.862;6.494;2023-05-07T07:26:50;16.60;99.90
2757;DHT22;1386;50.862;6.494;2023-05-07T07:29:18;16.70;99.90
2757;DHT22;1386;50.862;6.494;2023-05-07T07:31:48;16.80;99.90
2757;DHT22;1386;50.862;6.494;2023-05-07T07:37:38;17.30;99.90
2757;DHT22;1386;50.862;6.494;2023-05-07T07:40:10;17.30;99.90
2757;DHT22;1386;50.862;6.494;2023-05-07T07:42:38;17.30;99.90
2757;DHT22;1386;50.862;6.494;2023-05-07T07:45:06;17.40;99.90
2757;DHT22;1386;50.862;6.494;2023-05-07T07:47:35;17.20;99.90
2757;DHT22;1386;50.862;6.494;2023-05-07T07:50:02;17.30;99.90
2757;DHT22;1386;50.862;6.494;2023-05-07T07:52:29;17.60;99.90
2757;DHT22;1386;50.862;6.494;2023-05-07T07:54:56;17.50;99.90
2757;DHT22;1386;50.862;6.494;2023-05-07T07:57:23;17.60;99.90
2757;DHT22;1386;50.862;6.494;2023-05-07T07:59:50;17.70;99.90
2757;DHT22;1386;50.862;6.494;2023-05-07T08:02:17;17.90;99.90
2757;DHT22;1386;50.862;6.494;2023-05-07T08:04:45;18.10;99.90
2757;DHT22;1386;50.862;6.494;2023-05-07T08:07:12;18.10;99.90
2757;DHT22;1386;50.862;6.494;2023-05-07T08:09:40;17.90;99.90
2757;DHT22;1386;50.862;6.494;2023-05-07T08:12:07;18.00;99.90
2757;DHT22;1386;50.862;6.494;2023-05-07T08:14:36;18.10;99.90
2757;DHT22;1386;50.862;6.494;2023-05-07T08:20:36;19.10;99.90
2757;DHT22;1386;50.862;6.494;2023-05-07T08:23:16;18.60;99.90
2757;DHT22;1386;50.862;6.494;2023-05-07T08:33:01;19.00;99.90
2757;DHT22;1386;50.862;6.494;2023-05-07T08:45:40;19.40;99.90
2757;DHT22;1386;50.862;6.494;2023-05-07T08:48:09;19.60;99.90
2757;DHT22;1386;50.862;6.494;2023-05-07T08:50:41;19.50;99.90
2757;DHT22;1386;50.862;6.494;2023-05-07T08:53:08;19.60;99.90
2757;DHT22;1386;50.862;6.494;2023-05-07T08:55:35;19.70;99.90
2757;DHT22;1386;50.862;6.494;2023-05-07T08:58:02;19.70;99.90
2757;DHT22;1386;50.862;6.494;2023-05-07T09:00:29;19.80;99.90
2757;DHT22;1386;50.862;6.494;2023-05-07T09:03:14;20.00;99.90
2757;DHT22;1386;50.862;6.494;2023-05-07T09:09:11;20.50;99.90
2757;DHT22;1386;50.862;6.494;2023-05-07T09:11:55;21.00;99.90
2757;DHT22;1386;50.862;6.494;2023-05-07T09:14:30;21.20;99.90
2757;DHT22;1386;50.862;6.494;2023-05-07T09:20:22;25.10;99.90
2757;DHT22;1386;50.862;6.494;2023-05-07T09:25:28;21.80;99.90
2757;DHT22;1386;50.862;6.494;2023-05-07T09:27:55;22.00;99.90
2757;DHT22;1386;50.862;6.494;2023-05-07T09:30:22;22.10;99.90
2757;DHT22;1386;50.862;6.494;2023-05-07T09:32:53;22.20;99.90
2757;DHT22;1386;50.862;6.494;2023-05-07T09:35:21;22.30;99.90
2757;DHT22;1386;50.862;6.494;2023-05-07T09:37:49;22.40;99.90
2757;DHT22;1386;50.862;6.494;2023-05-07T09:40:23;22.50;99.90
2757;DHT22;1386;50.862;6.494;2023-05-07T09:42:50;22.60;99.90
2757;DHT22;1386;50.862;6.494;2023-05-07T09:45:21;22.70;99.90
2757;DHT22;1386;50.862;6.494;2023-05-07T09:47:49;22.90;99.90
2757;DHT22;1386;50.862;6.494;2023-05-07T09:50:18;23.00;99.90
2757;DHT22;1386;50.862;6.494;2023-05-07T09:52:47;23.00;99.90
2757;DHT22;1386;50.862;6.494;2023-05-07T09:55:15;22.90;99.90
2757;DHT22;1386;50.862;6.494;2023-05-07T09:57:43;23.10;99.90
2757;DHT22;1386;50.862;6.494;2023-05-07T10:00:12;23.00;99.90
2757;DHT22;1386;50.862;6.494;2023-05-07T10:02:42;22.80;99.90
2757;DHT22;1386;50.862;6.494;2023-05-07T10:05:14;22.80;99.90
2757;DHT22;1386;50.862;6.494;2023-05-07T10:07:42;22.90;99.90
2757;DHT22;1386;50.862;6.494;2023-05-07T10:10:11;22.80;99.90
2757;DHT22;1386;50.862;6.494;2023-05-07T10:12:39;23.00;99.90
2757;DHT22;1386;50.862;6.494;2023-05-07T10:15:07;23.00;99.90
2757;DHT22;1386;50.862;6.494;2023-05-07T10:17:36;23.10;99.90
2757;DHT22;1386;50.862;6.494;2023-05-07T10:20:03;21.50;99.90
2757;DHT22;1386;50.862;6.494;2023-05-07T10:22:36;23.00;99.90
2757;DHT22;1386;50.862;6.494;2023-05-07T10:25:08;23.00;99.90
2757;DHT22;1386;50.862;6.494;2023-05-07T10:27:39;23.00;99.90
2757;DHT22;1386;50.862;6.494;2023-05-07T10:30:12;23.20;99.90
2757;DHT22;1386;50.862;6.494;2023-05-07T10:32:45;24.20;99.90
2757;DHT22;1386;50.862;6.494;2023-05-07T10:35:17;23.10;99.90
2757;DHT22;1386;50.862;6.494;2023-05-07T10:37:46;22.80;99.90
2757;DHT22;1386;50.862;6.494;2023-05-07T10:40:20;22.80;99.90
2757;DHT22;1386;50.862;6.494;2023-05-07T10:43:17;22.70;99.90
2757;DHT22;1386;50.862;6.494;2023-05-07T10:52:16;23.90;99.90
2757;DHT22;1386;50.862;6.494;2023-05-07T10:55:21;22.70;99.90
2757;DHT22;1386;50.862;6.494;2023-05-07T10:58:00;23.70;99.90
2757;DHT22;1386;50.862;6.494;2023-05-07T11:00:59;21.60;99.90
2757;DHT22;1386;50.862;6.494;2023-05-07T11:06:09;22.10;99.90
2757;DHT22;1386;50.862;6.494;2023-05-07T11:09:04;22.90;99.90
2757;DHT22;1386;50.862;6.494;2023-05-07T11:11:44;22.00;99.90
2757;DHT22;1386;50.862;6.494;2023-05-07T11:14:13;22.10;99.90
2757;DHT22;1386;50.862;6.494;2023-05-07T11:16:41;22.10;99.90
2757;DHT22;1386;50.862;6.494;2023-05-07T11:19:09;22.10;99.90
2757;DHT22;1386;50.862;6.494;2023-05-07T11:21:38;22.10;99.90
2757;DHT22;1386;50.862;6.494;2023-05-07T11:24:06;22.10;99.90
2757;DHT22;1386;50.862;6.494;2023-05-07T11:26:53;22.10;99.90
2757;DHT22;1386;50.862;6.494;2023-05-07T11:29:21;22.00;99.90
2757;DHT22;1386;50.862;6.494;2023-05-07T11:31:50;22.00;99.90
2757;DHT22;1386;50.862;6.494;2023-05-07T11:37:39;22.60;99.90
2757;DHT22;1386;50.862;6.494;2023-05-07T11:40:54;21.60;99.90
2757;DHT22;1386;50.862;6.494;2023-05-07T11:49:04;21.10;99.90
2757;DHT22;1386;50.862;6.494;2023-05-07T11:52:04;21.30;99.90
2757;DHT22;1386;50.862;6.494;2023-05-07T11:55:12;21.40;99.90
2757;DHT22;1386;50.862;6.494;2023-05-07T11:57:51;21.20;99.90
2757;DHT22;1386;50.862;6.494;2023-05-07T12:00:21;21.70;99.90
2757;DHT22;1386;50.862;6.494;2023-05-07T12:02:49;21.40;99.90
2757;DHT22;1386;50.862;6.494;2023-05-07T12:05:21;21.30;99.90
2757;DHT22;1386;50.862;6.494;2023-05-07T12:07:48;21.30;99.90
2757;DHT22;1386;50.862;6.494;2023-05-07T12:10:15;21.10;99.90
2757;DHT22;1386;50.862;6.494;2023-05-07T12:12:46;21.10;99.90
2757;DHT22;1386;50.862;6.494;2023-05-07T12:15:16;23.00;99.90
2757;DHT22;1386;50.862;6.494;2023-05-07T12:17:43;21.10;99.90
2757;DHT22;1386;50.862;6.494;2023-05-07T12:20:18;21.00;99.90
2757;DHT22;1386;50.862;6.494;2023-05-07T12:22:54;21.00;99.90
2757;DHT22;1386;50.862;6.494;2023-05-07T12:25:21;20.90;99.90
2757;DHT22;1386;50.862;6.494;2023-05-07T12:27:51;20.80;99.90
2757;DHT22;1386;50.862;6.494;2023-05-07T12:30:19;20.70;99.90
2757;DHT22;1386;50.862;6.494;2023-05-07T12:32:45;20.40;99.90
2757;DHT22;1386;50.862;6.494;2023-05-07T12:35:12;20.20;99.90
2757;DHT22;1386;50.862;6.494;2023-05-07T12:37:42;20.00;99.90
2757;DHT22;1386;50.862;6.494;2023-05-07T12:40:12;19.70;99.90
2757;DHT22;1386;50.862;6.494;2023-05-07T13:43:09;18.40;99.90
2757;DHT22;1386;50.862;6.494;2023-05-07T13:45:36;18.20;99.90
2757;DHT22;1386;50.862;6.494;2023-05-07T13:48:03;18.80;99.90
2757;DHT22;1386;50.862;6.494;2023-05-07T13:50:30;18.60;99.90
2757;DHT22;1386;50.862;6.494;2023-05-07T13:52:57;18.60;99.90
2757;DHT22;1386;50.862;6.494;2023-05-07T13:55:24;18.70;99.90
2757;DHT22;1386;50.862;6.494;2023-05-07T13:57:55;18.80;99.90
2757;DHT22;1386;50.862;6.494;2023-05-07T14:00:24;18.80;99.90
2757;DHT22;1386;50.862;6.494;2023-05-07T14:02:51;18.90;99.90
2757;DHT22;1386;50.862;6.494;2023-05-07T14:05:18;18.90;99.90
2757;DHT22;1386;50.862;6.494;2023-05-07T14:07:45;19.00;99.90
2757;DHT22;1386;50.862;6.494;2023-05-07T14:10:12;19.30;99.90
2757;DHT22;1386;50.862;6.494;2023-05-07T14:12:39;19.10;99.90
2757;DHT22;1386;50.862;6.494;2023-05-07T14:15:07;19.10;99.90
2757;DHT22;1386;50.862;6.494;2023-05-07T14:17:35;19.20;99.90
2757;DHT22;1386;50.862;6.494;2023-05-07T14:20:03;19.20;99.90
2757;DHT22;1386;50.862;6.494;2023-05-07T14:22:31;19.30;99.90
2757;DHT22;1386;50.862;6.494;2023-05-07T14:24:58;19.30;99.90
2757;DHT22;1386;50.862;6.494;2023-05-07T14:32:20;19.40;99.90
2757;DHT22;1386;50.862;6.494;2023-05-07T14:34:48;19.20;99.90
2757;DHT22;1386;50.862;6.494;2023-05-07T14:37:19;19.70;99.90
2757;DHT22;1386;50.862;6.494;2023-05-07T14:44:40;19.40;99.90
2757;DHT22;1386;50.862;6.494;2023-05-07T14:52:18;19.50;99.90
2757;DHT22;1386;50.862;6.494;2023-05-07T14:54:45;19.50;99.90
2757;DHT22;1386;50.862;6.494;2023-05-07T14:57:14;19.50;99.90
2757;DHT22;1386;50.862;6.494;2023-05-07T15:12:40;19.40;99.90
2757;DHT22;1386;50.862;6.494;2023-05-07T15:15:08;19.40;99.90
2757;DHT22;1386;50.862;6.494;2023-05-07T15:17:35;19.50;99.90
2757;DHT22;1386;50.862;6.494;2023-05-07T15:20:02;20.80;99.90
2757;DHT22;1386;50.862;6.494;2023-05-07T15:22:30;19.50;99.90
2757;DHT22;1386;50.862;6.494;2023-05-07T15:24:57;19.40;99.90
2757;DHT22;1386;50.862;6.494;2023-05-07T15:27:24;19.40;99.90
2757;DHT22;1386;50.862;6.494;2023-05-07T15:29:52;19.40;99.90
2757;DHT22;1386;50.862;6.494;2023-05-07T15:32:19;19.40;99.90
2757;DHT22;1386;50.862;6.494;2023-05-07T15:34:59;18.60;99.90
2757;DHT22;1386;50.862;6.494;2023-05-07T15:37:26;19.50;99.90
2757;DHT22;1386;50.862;6.494;2023-05-07T15:42:20;19.40;99.90
2757;DHT22;1386;50.862;6.494;2023-05-07T15:44:47;19.40;99.90
